createdAt,value
2018-06-21T00:00:30.232Z,12.60
2018-06-21T00:05:23.694Z,12.95
2018-06-21T00:10:17.127Z,10.03
2018-06-21T00:15:10.502Z,8.43
2018-06-21T00:20:03.955Z,6.67
2018-06-21T00:24:57.428Z,5.30
2018-06-21T00:29:50.793Z,7.33
2018-06-21T00:34:44.148Z,9.00
2018-06-21T00:39:37.500Z,10.93
2018-06-21T00:44:30.822Z,8.77
2018-06-21T00:49:24.160Z,9.98
2018-06-21T00:54:17.468Z,8.97
2018-06-21T00:59:10.699Z,10.05
2018-06-21T01:04:04.175Z,8.33
2018-06-21T01:08:57.516Z,10.00
2018-06-21T01:13:50.840Z,6.35
2018-06-21T01:18:44.190Z,7.37
2018-06-21T01:23:37.535Z,7.33
2018-06-21T01:28:30.951Z,7.87
2018-06-21T01:33:24.309Z,8.47
2018-06-21T01:38:17.725Z,8.93
2018-06-21T01:43:11.030Z,7.27
2018-06-21T01:48:04.490Z,7.35
2018-06-21T01:52:57.817Z,7.60
2018-06-21T01:57:51.136Z,7.93
2018-06-21T02:02:44.497Z,8.13
2018-06-21T02:07:38.214Z,11.57
2018-06-21T02:12:31.487Z,6.63
2018-06-21T02:17:24.860Z,8.20
2018-06-21T02:22:18.246Z,12.07
2018-06-21T02:27:11.564Z,8.70
2018-06-21T02:32:04.896Z,11.17
2018-06-21T02:36:58.252Z,8.50
2018-06-21T02:41:51.602Z,9.95
2018-06-21T02:46:44.916Z,7.93
2018-06-21T02:51:38.294Z,11.47
2018-06-21T02:56:31.712Z,11.00
2018-06-21T03:01:25.088Z,10.50
2018-06-21T03:06:18.481Z,9.88
2018-06-21T03:11:11.824Z,11.40
2018-06-21T03:16:05.052Z,10.93
2018-06-21T03:20:58.366Z,8.78
2018-06-21T03:25:51.670Z,9.30
2018-06-21T03:30:44.998Z,10.23
2018-06-21T03:35:38.350Z,9.13
2018-06-21T03:40:31.684Z,8.73
2018-06-21T03:45:24.947Z,9.27
2018-06-21T03:50:18.357Z,9.87
2018-06-21T03:55:11.672Z,10.47
2018-06-21T04:00:06.458Z,9.70
2018-06-21T04:04:59.784Z,8.97
2018-06-21T04:09:53.145Z,9.15
2018-06-21T04:14:46.466Z,11.27
2018-06-21T04:19:39.788Z,10.10
2018-06-21T04:24:33.138Z,9.97
2018-06-21T04:29:26.463Z,10.20
2018-06-21T04:34:19.936Z,11.05
2018-06-21T04:39:13.271Z,12.80
2018-06-21T04:44:06.636Z,10.17
2018-06-21T04:48:59.953Z,6.70
2018-06-21T04:53:53.257Z,10.63
2018-06-21T04:58:46.490Z,13.22
2018-06-21T05:03:39.828Z,8.90
2018-06-21T05:08:33.237Z,11.33
2018-06-21T05:13:26.549Z,10.83
2018-06-21T05:18:19.886Z,13.87
2018-06-21T05:23:13.218Z,17.10
2018-06-21T05:28:06.514Z,14.00
2018-06-21T05:32:59.806Z,14.10
2018-06-21T05:37:53.065Z,10.30
2018-06-21T05:42:46.227Z,12.03
2018-06-21T05:47:39.500Z,10.15
2018-06-21T05:52:32.671Z,12.37
2018-06-21T05:57:25.845Z,8.40
2018-06-21T06:02:19.007Z,8.13
2018-06-21T06:07:12.294Z,11.75
2018-06-21T06:12:05.584Z,9.90
2018-06-21T06:16:58.827Z,13.70
2018-06-21T06:21:52.321Z,9.80
2018-06-21T06:26:45.505Z,15.67
2018-06-21T06:31:38.957Z,12.97
2018-06-21T06:36:32.269Z,14.13
2018-06-21T06:41:25.515Z,16.93
2018-06-21T06:46:18.785Z,17.13
2018-06-21T06:51:12.095Z,16.50
2018-06-21T06:56:05.442Z,21.10
2018-06-21T07:00:58.886Z,19.47
2018-06-21T07:05:52.196Z,16.95
2018-06-21T07:10:45.456Z,16.43
2018-06-21T07:15:38.884Z,13.72
2018-06-21T07:20:32.352Z,15.57
2018-06-21T07:25:25.489Z,14.87
2018-06-21T07:30:18.775Z,15.93
2018-06-21T07:35:12.180Z,14.97
2018-06-21T07:40:05.419Z,16.12
2018-06-21T07:44:58.681Z,16.87
2018-06-21T07:49:51.882Z,13.43
2018-06-21T07:54:45.029Z,15.80
2018-06-21T07:59:38.303Z,13.37
2018-06-21T08:04:31.590Z,11.78
2018-06-21T08:09:24.878Z,12.43
2018-06-21T08:14:18.110Z,9.80
2018-06-21T08:19:11.400Z,11.07
2018-06-21T08:24:04.827Z,11.05
2018-06-21T08:28:58.207Z,7.90
2018-06-21T08:33:51.348Z,11.00
2018-06-21T08:38:44.623Z,18.67
2018-06-21T08:43:38.025Z,7.03
2018-06-21T08:48:31.966Z,10.65
2018-06-21T08:53:25.238Z,5.40
2018-06-21T08:58:18.507Z,10.87
2018-06-21T09:03:12.334Z,5.27
2018-06-21T09:08:05.932Z,5.73
2018-06-21T09:12:59.081Z,10.77
2018-06-21T09:17:52.339Z,7.40
2018-06-21T09:22:45.583Z,6.63
2018-06-21T09:27:39.906Z,7.93
2018-06-21T09:32:33.768Z,14.80
2018-06-21T09:37:32.649Z,16.12
2018-06-21T09:42:31.408Z,18.33
2018-06-21T09:47:30.708Z,16.97
2018-06-21T09:52:24.016Z,12.00
2018-06-21T09:57:17.268Z,12.33
2018-06-21T10:02:10.520Z,11.83
2018-06-21T10:07:03.951Z,18.37
2018-06-21T10:11:57.237Z,12.63
2018-06-21T10:16:50.635Z,9.80
2018-06-21T10:21:43.876Z,7.23
2018-06-21T10:26:37.261Z,13.23
2018-06-21T10:31:30.563Z,11.27
2018-06-21T10:36:23.950Z,8.00
2018-06-21T10:41:17.258Z,8.88
2018-06-21T10:46:11.441Z,8.13
2018-06-21T10:51:04.694Z,10.67
2018-06-21T10:55:58.010Z,6.53
2018-06-21T11:00:51.286Z,15.13
2018-06-21T11:05:44.626Z,13.70
2018-06-21T11:10:37.867Z,15.50
2018-06-21T11:15:31.019Z,6.58
2018-06-21T11:20:24.339Z,8.30
2018-06-21T11:25:18.056Z,11.83
2018-06-21T11:30:11.361Z,14.77
2018-06-21T11:35:04.633Z,9.35
2018-06-21T11:39:57.963Z,8.43
2018-06-21T11:44:51.557Z,12.00
2018-06-21T11:49:44.917Z,8.63
2018-06-21T11:54:38.238Z,10.50
2018-06-21T11:59:31.545Z,4.78
2018-06-21T12:04:25.085Z,5.10
2018-06-21T12:09:18.340Z,6.10
2018-06-21T12:14:11.674Z,5.53
2018-06-21T12:19:05.675Z,7.83
2018-06-21T12:23:58.867Z,5.87
2018-06-21T12:28:52.100Z,6.25
2018-06-21T12:33:45.383Z,5.87
2018-06-21T12:38:38.651Z,6.85
2018-06-21T12:43:31.949Z,5.90
2018-06-21T12:48:25.227Z,6.75
2018-06-21T12:53:18.383Z,7.77
2018-06-21T12:58:11.651Z,8.05
2018-06-21T13:03:04.928Z,8.00
2018-06-21T13:07:58.198Z,5.58
2018-06-21T13:13:09.641Z,6.03
2018-06-21T13:18:03.010Z,9.57
2018-06-21T13:22:56.262Z,9.63
2018-06-21T13:27:49.578Z,6.80
2018-06-21T13:32:42.876Z,6.93
2018-06-21T13:37:36.171Z,6.93
2018-06-21T13:42:29.451Z,11.17
2018-06-21T13:47:22.692Z,13.50
2018-06-21T13:52:16.098Z,7.47
2018-06-21T13:57:09.364Z,6.60
2018-06-21T14:02:02.618Z,13.23
2018-06-21T14:06:55.906Z,6.70
2018-06-21T14:11:49.156Z,7.35
2018-06-21T14:16:42.396Z,6.90
2018-06-21T14:21:35.750Z,13.60
2018-06-21T14:26:28.978Z,6.77
2018-06-21T14:31:23.811Z,5.12
2018-06-21T14:36:17.118Z,7.33
2018-06-21T14:41:10.436Z,6.28
2018-06-21T14:46:03.692Z,14.57
2018-06-21T14:50:57.099Z,7.90
2018-06-21T14:55:50.436Z,8.13
2018-06-21T15:00:43.643Z,4.87
2018-06-21T15:05:36.891Z,6.60
2018-06-21T15:10:30.709Z,9.27
2018-06-21T15:15:24.052Z,5.10
2018-06-21T15:20:17.489Z,5.57
2018-06-21T15:25:10.774Z,7.53
2018-06-21T15:30:04.169Z,6.30
2018-06-21T15:34:57.491Z,4.93
2018-06-21T15:39:51.593Z,6.80
2018-06-21T15:44:44.847Z,8.10
2018-06-21T15:49:38.092Z,3.13
2018-06-21T15:54:31.416Z,7.70
2018-06-21T15:59:24.695Z,6.53
2018-06-21T16:04:17.939Z,4.90
2018-06-21T16:09:11.112Z,4.30
2018-06-21T16:14:04.254Z,9.70
2018-06-21T16:18:57.496Z,5.93
2018-06-21T16:23:50.788Z,6.00
2018-06-21T16:28:44.097Z,4.50
2018-06-21T16:33:37.283Z,5.47
2018-06-21T16:38:30.542Z,4.47
2018-06-21T16:43:23.782Z,6.50
2018-06-21T16:48:17.079Z,7.72
2018-06-21T16:53:10.351Z,6.43
2018-06-21T16:58:03.601Z,5.30
2018-06-21T17:02:56.851Z,7.90
2018-06-21T17:07:50.113Z,6.80
2018-06-21T17:12:43.419Z,6.93
2018-06-21T17:17:36.855Z,4.92
2018-06-21T17:22:30.607Z,4.47
2018-06-21T17:27:23.869Z,7.13
2018-06-21T17:32:17.175Z,3.52
2018-06-21T17:37:10.437Z,6.10
2018-06-21T17:42:03.721Z,5.67
2018-06-21T17:46:57.082Z,3.93
2018-06-21T17:51:50.356Z,3.62
2018-06-21T17:56:43.670Z,6.63
2018-06-21T18:01:36.841Z,6.03
2018-06-21T18:06:30.032Z,3.93
2018-06-21T18:11:23.580Z,6.67
2018-06-21T18:16:16.878Z,4.37
2018-06-21T18:21:10.060Z,9.60
2018-06-21T18:26:03.375Z,4.90
2018-06-21T18:30:56.537Z,8.87
2018-06-21T18:35:49.850Z,8.80
2018-06-21T18:40:43.162Z,6.05
2018-06-21T18:45:36.420Z,7.17
2018-06-21T18:50:29.741Z,5.07
2018-06-21T18:55:23.022Z,4.50
2018-06-21T19:00:16.298Z,5.03
2018-06-21T19:05:09.639Z,4.55
2018-06-21T19:10:08.557Z,6.63
2018-06-21T19:15:02.052Z,6.77
2018-06-21T19:19:55.346Z,7.33
2018-06-21T19:24:48.624Z,10.50
2018-06-21T19:29:41.886Z,9.60
2018-06-21T19:34:35.134Z,4.87
2018-06-21T19:39:28.473Z,4.10
2018-06-21T19:44:21.666Z,9.23
2018-06-21T19:49:14.856Z,7.60
2018-06-21T19:54:08.401Z,6.40
2018-06-21T19:59:01.724Z,5.73
2018-06-21T20:03:55.172Z,9.05
2018-06-21T20:08:48.358Z,7.70
2018-06-21T20:13:49.255Z,8.33
2018-06-21T20:18:42.497Z,6.20
2018-06-21T20:23:35.920Z,5.70
2018-06-21T20:28:29.201Z,8.30
2018-06-21T20:33:22.535Z,8.77
2018-06-21T20:38:15.939Z,7.47
2018-06-21T20:43:09.225Z,11.37
2018-06-21T20:48:02.495Z,5.92
2018-06-21T20:52:55.731Z,13.33
2018-06-21T20:57:49.102Z,5.00
2018-06-21T21:02:42.371Z,8.20
2018-06-21T21:07:35.726Z,10.03
2018-06-21T21:12:29.140Z,7.27
2018-06-21T21:17:22.432Z,7.23
2018-06-21T21:22:15.716Z,9.33
2018-06-21T21:27:09.006Z,7.93
2018-06-21T21:32:02.244Z,6.40
2018-06-21T21:36:55.516Z,8.10
2018-06-21T21:41:48.755Z,6.42
2018-06-21T21:46:41.991Z,7.53
2018-06-21T21:51:35.226Z,7.22
2018-06-21T21:56:28.574Z,8.00
2018-06-21T22:01:21.877Z,8.60
2018-06-21T22:06:15.145Z,7.80
2018-06-21T22:11:08.453Z,5.72
2018-06-21T22:16:01.828Z,6.53
2018-06-21T22:20:55.310Z,9.77
2018-06-21T22:25:48.627Z,6.12
2018-06-21T22:30:41.902Z,5.53
2018-06-21T22:35:35.110Z,7.40
2018-06-21T22:40:28.394Z,4.20
2018-06-21T22:45:21.665Z,6.78
2018-06-21T22:50:14.916Z,6.27
2018-06-21T22:55:08.150Z,6.50
2018-06-21T23:00:01.607Z,6.80
2018-06-21T23:04:54.941Z,6.60
2018-06-21T23:09:48.134Z,4.77
2018-06-21T23:14:41.398Z,6.03
2018-06-21T23:19:34.576Z,7.92
2018-06-21T23:24:27.739Z,4.53
2018-06-21T23:29:20.950Z,10.03
2018-06-21T23:34:14.223Z,8.00
2018-06-21T23:39:09.627Z,9.58
2018-06-21T23:44:03.032Z,5.70
2018-06-21T23:48:56.363Z,6.43
2018-06-21T23:53:49.668Z,8.27
2018-06-21T23:58:42.955Z,6.90
